createdAt,value
2023-02-01T00:01:26.808Z,8.30
2023-02-01T00:03:56.187Z,8.30
2023-02-01T00:06:24.410Z,8.30
2023-02-01T00:08:54.781Z,8.30
2023-02-01T00:11:23.502Z,8.20
2023-02-01T00:13:51.869Z,8.30
2023-02-01T00:16:21.656Z,8.30
2023-02-01T00:18:51.139Z,8.30
2023-02-01T00:21:22.323Z,8.40
2023-02-01T00:23:50.674Z,8.30
2023-02-01T00:26:24.747Z,8.40
2023-02-01T00:28:52.860Z,8.40
2023-02-01T00:31:20.967Z,8.30
2023-02-01T00:33:49.446Z,8.40
2023-02-01T00:36:20.314Z,8.40
2023-02-01T00:38:49.701Z,8.50
2023-02-01T00:41:20.237Z,8.40
2023-02-01T00:43:49.113Z,8.40
2023-02-01T00:46:19.575Z,8.40
2023-02-01T00:48:48.036Z,8.40
2023-02-01T00:51:18.389Z,8.50
2023-02-01T00:53:46.680Z,8.40
2023-02-01T00:56:16.406Z,8.40
2023-02-01T00:58:46.051Z,8.60
2023-02-01T01:01:16.865Z,8.40
2023-02-01T01:03:47.361Z,8.40
2023-02-01T01:06:17.256Z,8.30
2023-02-01T01:08:45.520Z,8.40
2023-02-01T01:11:17.412Z,8.30
2023-02-01T01:13:48.278Z,8.30
2023-02-01T01:16:16.755Z,8.30
2023-02-01T01:18:45.527Z,8.30
2023-02-01T01:21:14.937Z,8.40
2023-02-01T01:23:43.243Z,8.30
2023-02-01T01:26:14.636Z,8.40
2023-02-01T01:28:44.737Z,8.50
2023-02-01T01:31:14.087Z,8.50
2023-02-01T01:33:42.444Z,8.50
2023-02-01T01:36:13.455Z,8.50
2023-02-01T01:38:42.064Z,8.40
2023-02-01T01:41:13.755Z,8.40
2023-02-01T01:43:55.760Z,8.40
2023-02-01T01:46:28.683Z,8.60
2023-02-01T01:49:06.560Z,8.40
2023-02-01T01:51:40.165Z,8.40
2023-02-01T01:54:14.490Z,8.50
2023-02-01T01:56:43.580Z,8.30
2023-02-01T01:59:13.861Z,8.40
2023-02-01T02:01:42.447Z,8.40
2023-02-01T02:04:10.720Z,8.30
2023-02-01T02:06:49.090Z,8.50
2023-02-01T02:09:18.237Z,8.30
2023-02-01T02:11:46.648Z,8.40
2023-02-01T02:14:19.408Z,8.40
2023-02-01T02:17:00.665Z,8.40
2023-02-01T02:20:17.570Z,8.40
2023-02-01T02:23:00.596Z,8.40
2023-02-01T02:25:56.917Z,8.40
2023-02-01T02:28:44.493Z,8.40
2023-02-01T02:31:50.091Z,8.40
2023-02-01T02:34:27.039Z,8.40
2023-02-01T02:37:06.440Z,8.40
2023-02-01T02:39:43.353Z,8.40
2023-02-01T02:42:33.399Z,8.40
2023-02-01T02:45:24.683Z,8.40
2023-02-01T02:47:56.954Z,8.40
2023-02-01T02:50:48.498Z,8.40
2023-02-01T02:53:37.748Z,8.30
2023-02-01T02:56:26.018Z,8.40
2023-02-01T02:59:12.559Z,8.40
2023-02-01T03:02:02.009Z,8.40
2023-02-01T03:04:32.453Z,8.40
2023-02-01T03:07:17.027Z,8.40
2023-02-01T03:09:49.945Z,8.40
2023-02-01T03:12:35.915Z,8.40
2023-02-01T03:15:10.593Z,8.40
2023-02-01T03:17:45.365Z,8.30
2023-02-01T03:20:16.908Z,8.30
2023-02-01T03:22:47.266Z,8.40
2023-02-01T03:25:20.355Z,8.10
2023-02-01T03:27:54.073Z,8.20
2023-02-01T03:30:25.071Z,8.30
2023-02-01T03:33:02.118Z,8.20
2023-02-01T03:35:35.851Z,8.10
2023-02-01T03:38:12.148Z,8.20
2023-02-01T03:40:42.036Z,8.20
2023-02-01T03:43:16.471Z,8.20
2023-02-01T03:45:48.069Z,8.20
2023-02-01T03:48:17.267Z,8.20
2023-02-01T03:50:50.527Z,8.40
2023-02-01T03:53:22.890Z,8.20
2023-02-01T03:55:52.068Z,8.20
2023-02-01T03:58:22.801Z,8.10
2023-02-01T04:00:55.179Z,8.20
2023-02-01T04:03:23.897Z,8.10
2023-02-01T04:05:52.163Z,8.10
2023-02-01T04:08:24.931Z,8.10
2023-02-01T04:10:53.209Z,8.10
2023-02-01T04:13:21.284Z,8.00
2023-02-01T04:15:50.853Z,8.10
2023-02-01T04:18:19.072Z,8.10
2023-02-01T04:20:47.140Z,8.10
2023-02-01T04:23:16.627Z,8.10
2023-02-01T04:25:46.567Z,8.40
2023-02-01T04:28:14.634Z,8.20
2023-02-01T04:30:42.783Z,8.10
2023-02-01T04:33:10.850Z,8.20
2023-02-01T04:35:38.814Z,8.20
2023-02-01T04:38:07.977Z,8.20
2023-02-01T04:40:36.032Z,8.20
2023-02-01T04:43:06.066Z,8.20
2023-02-01T04:45:38.384Z,8.20
2023-02-01T04:48:07.227Z,8.20
2023-02-01T04:50:35.643Z,8.20
2023-02-01T04:53:03.787Z,8.20
2023-02-01T04:55:31.853Z,8.40
2023-02-01T04:57:59.916Z,8.20
2023-02-01T05:00:29.409Z,8.30
2023-02-01T05:02:57.623Z,8.20
2023-02-01T05:05:25.633Z,8.20
2023-02-01T05:07:53.705Z,8.20
2023-02-01T05:10:22.057Z,8.10
2023-02-01T05:13:07.627Z,8.30
2023-02-01T05:15:37.114Z,7.90
2023-02-01T05:18:05.538Z,8.00
2023-02-01T05:20:33.622Z,8.10
2023-02-01T05:23:01.670Z,8.00
2023-02-01T05:25:29.567Z,8.00
2023-02-01T05:27:57.736Z,8.20
2023-02-01T05:30:25.894Z,8.00
2023-02-01T05:32:55.618Z,8.00
2023-02-01T05:35:23.701Z,8.00
2023-02-01T05:37:51.665Z,8.10
2023-02-01T05:40:19.922Z,7.90
2023-02-01T05:42:48.097Z,7.90
2023-02-01T05:45:16.512Z,8.00
2023-02-01T05:47:44.834Z,8.00
2023-02-01T05:50:14.463Z,8.00
2023-02-01T05:52:42.552Z,8.00
2023-02-01T05:55:11.075Z,8.00
2023-02-01T05:57:39.047Z,8.00
2023-02-01T06:00:08.771Z,7.90
2023-02-01T06:02:36.742Z,7.90
2023-02-01T06:05:05.076Z,7.90
2023-02-01T06:07:34.868Z,8.00
2023-02-01T06:10:02.942Z,8.00
2023-02-01T06:12:30.909Z,8.00
2023-02-01T06:14:59.642Z,8.00
2023-02-01T06:17:27.995Z,8.00
2023-02-01T06:19:56.106Z,8.00
2023-02-01T06:22:24.190Z,8.00
2023-02-01T06:24:53.650Z,8.00
2023-02-01T06:27:22.126Z,8.00
2023-02-01T06:29:50.316Z,8.00
2023-02-01T06:32:19.001Z,8.10
2023-02-01T06:34:47.016Z,8.10
2023-02-01T06:37:15.264Z,8.10
2023-02-01T06:39:43.709Z,8.10
2023-02-01T06:42:13.128Z,8.10
2023-02-01T06:44:41.241Z,8.10
2023-02-01T06:47:09.497Z,8.10
2023-02-01T06:49:37.815Z,8.20
2023-02-01T06:52:06.233Z,8.10
2023-02-01T06:54:35.377Z,8.10
2023-02-01T06:57:03.765Z,8.20
2023-02-01T06:59:33.686Z,8.10
2023-02-01T07:02:01.809Z,8.10
2023-02-01T07:04:29.919Z,8.00
2023-02-01T07:06:57.837Z,8.00
2023-02-01T07:09:26.077Z,8.00
2023-02-01T07:11:54.051Z,8.10
2023-02-01T07:14:22.146Z,8.10
2023-02-01T07:16:51.877Z,8.10
2023-02-01T07:19:20.007Z,8.30
2023-02-01T07:21:47.942Z,8.10
2023-02-01T07:24:16.763Z,8.10
2023-02-01T07:26:45.168Z,8.10
2023-02-01T07:29:15.500Z,8.00
2023-02-01T07:31:43.718Z,8.30
2023-02-01T07:34:13.205Z,8.10
2023-02-01T07:36:41.444Z,8.10
2023-02-01T07:39:09.605Z,8.10
2023-02-01T07:41:38.034Z,7.90
2023-02-01T07:44:06.483Z,8.00
2023-02-01T07:46:34.586Z,8.10
2023-02-01T07:49:02.783Z,8.10
2023-02-01T07:51:32.090Z,8.10
2023-02-01T07:54:00.424Z,8.10
2023-02-01T07:56:28.678Z,8.10
2023-02-01T07:58:57.280Z,8.10
2023-02-01T08:01:26.759Z,8.10
2023-02-01T08:03:56.399Z,8.10
2023-02-01T08:06:25.862Z,8.10
2023-02-01T08:08:56.288Z,8.00
2023-02-01T08:11:26.149Z,8.30
2023-02-01T08:13:54.568Z,8.10
2023-02-01T08:16:23.415Z,8.10
2023-02-01T08:18:51.862Z,8.10
2023-02-01T08:21:22.937Z,8.10
2023-02-01T08:23:51.450Z,8.10
2023-02-01T08:26:23.534Z,8.10
2023-02-01T08:28:54.095Z,8.20
2023-02-01T08:31:24.292Z,8.10
2023-02-01T08:33:54.907Z,8.20
2023-02-01T08:36:24.234Z,8.10
2023-02-01T08:38:53.040Z,8.20
2023-02-01T08:41:25.129Z,8.20
2023-02-01T08:43:53.843Z,8.30
2023-02-01T08:46:22.410Z,8.30
2023-02-01T08:48:51.091Z,8.30
2023-02-01T08:51:21.271Z,8.40
2023-02-01T08:53:50.206Z,8.40
2023-02-01T08:56:22.498Z,8.40
2023-02-01T08:58:51.935Z,8.50
2023-02-01T09:01:20.759Z,8.40
2023-02-01T09:03:48.922Z,8.50
2023-02-01T09:06:20.303Z,8.50
2023-02-01T09:08:48.861Z,8.60
2023-02-01T09:11:20.610Z,8.60
2023-02-01T09:13:49.763Z,8.70
2023-02-01T09:16:20.081Z,8.80
2023-02-01T09:19:22.166Z,8.70
2023-02-01T09:21:47.479Z,8.70
2023-02-01T09:24:15.867Z,8.70
2023-02-01T09:26:44.205Z,8.80
2023-02-01T09:29:12.605Z,8.80
2023-02-01T09:31:49.770Z,8.90
2023-02-01T09:34:21.742Z,8.70
2023-02-01T09:36:49.894Z,8.70
2023-02-01T09:39:18.309Z,8.80
2023-02-01T09:41:56.545Z,8.80
2023-02-01T09:44:48.575Z,8.80
2023-02-01T09:47:21.575Z,8.80
2023-02-01T09:49:56.366Z,8.90
2023-02-01T09:52:33.784Z,8.80
2023-02-01T09:55:05.830Z,8.90
2023-02-01T09:57:44.236Z,8.80
2023-02-01T10:00:19.971Z,9.00
2023-02-01T10:02:49.618Z,8.80
2023-02-01T10:05:22.715Z,8.80
2023-02-01T10:08:02.977Z,8.80
2023-02-01T10:10:37.256Z,8.80
2023-02-01T10:13:24.601Z,8.80
2023-02-01T10:16:05.282Z,8.80
2023-02-01T10:19:05.322Z,8.80
2023-02-01T10:21:45.006Z,8.80
2023-02-01T10:24:39.460Z,8.80
2023-02-01T10:27:15.595Z,8.70
2023-02-01T10:29:47.096Z,8.80
2023-02-01T10:32:18.046Z,8.80
2023-02-01T10:34:54.135Z,8.90
2023-02-01T10:37:33.581Z,9.00
2023-02-01T10:40:07.968Z,8.90
2023-02-01T10:42:36.383Z,8.90
2023-02-01T10:45:06.152Z,9.00
2023-02-01T10:47:34.593Z,9.00
2023-02-01T10:50:16.844Z,9.10
2023-02-01T10:52:50.270Z,9.20
2023-02-01T10:55:39.893Z,9.20
2023-02-01T10:58:16.791Z,9.20
2023-02-01T11:00:48.173Z,9.30
2023-02-01T11:03:40.689Z,9.20
2023-02-01T11:06:32.013Z,9.20
2023-02-01T11:09:02.889Z,9.30
2023-02-01T11:11:31.515Z,9.20
2023-02-01T11:14:02.024Z,9.30
2023-02-01T11:16:37.747Z,9.40
2023-02-01T11:19:06.776Z,9.30
2023-02-01T11:21:39.942Z,9.30
2023-02-01T11:24:18.636Z,9.30
2023-02-01T11:26:47.252Z,9.30
2023-02-01T11:29:21.226Z,9.50
2023-02-01T11:31:49.317Z,9.30
2023-02-01T11:34:23.172Z,9.20
2023-02-01T11:36:54.105Z,9.30
2023-02-01T11:39:27.292Z,9.30
2023-02-01T11:42:03.070Z,9.30
2023-02-01T11:44:35.880Z,9.30
2023-02-01T11:47:25.687Z,9.30
2023-02-01T11:49:55.067Z,9.30
2023-02-01T11:52:56.589Z,9.30
2023-02-01T11:55:40.867Z,9.30
2023-02-01T11:58:23.249Z,9.30
2023-02-01T12:01:15.137Z,9.30
2023-02-01T12:04:15.384Z,9.30
2023-02-01T12:06:51.546Z,9.30
2023-02-01T12:09:44.841Z,9.30
2023-02-01T12:12:21.812Z,9.30
2023-02-01T12:15:07.672Z,9.30
2023-02-01T12:18:13.070Z,9.30
2023-02-01T12:21:05.917Z,9.20
2023-02-01T12:23:55.307Z,9.20
2023-02-01T12:26:46.674Z,9.20
2023-02-01T12:29:57.207Z,9.20
2023-02-01T12:32:39.803Z,9.20
2023-02-01T12:35:40.672Z,9.40
2023-02-01T12:38:21.978Z,9.30
2023-02-01T12:41:05.428Z,9.30
2023-02-01T12:43:44.713Z,9.30
2023-02-01T12:46:21.989Z,9.30
2023-02-01T12:48:58.721Z,9.40
2023-02-01T12:51:31.156Z,9.40
2023-02-01T12:54:04.843Z,9.30
2023-02-01T12:56:39.229Z,9.30
2023-02-01T12:59:24.732Z,9.30
2023-02-01T13:02:00.212Z,9.40
2023-02-01T13:04:34.059Z,9.40
2023-02-01T13:07:09.688Z,9.50
2023-02-01T13:09:42.976Z,9.40
2023-02-01T13:12:18.243Z,9.40
2023-02-01T13:14:54.189Z,9.50
2023-02-01T13:17:25.654Z,9.60
2023-02-01T13:19:57.536Z,9.60
2023-02-01T13:22:29.561Z,9.70
2023-02-01T13:25:01.197Z,9.60
2023-02-01T13:27:31.572Z,9.70
2023-02-01T13:30:06.219Z,9.60
2023-02-01T13:33:53.356Z,9.60
2023-02-01T13:36:32.637Z,9.60
2023-02-01T13:39:38.842Z,9.50
2023-02-01T13:42:15.210Z,9.40
2023-02-01T13:44:46.731Z,9.40
2023-02-01T13:47:25.222Z,9.40
2023-02-01T13:49:54.914Z,9.40
2023-02-01T13:52:30.637Z,9.60
2023-02-01T13:55:17.867Z,9.40
2023-02-01T13:57:46.591Z,9.30
2023-02-01T14:00:31.646Z,9.40
2023-02-01T14:03:44.343Z,9.40
2023-02-01T14:06:37.091Z,9.50
2023-02-01T14:09:18.901Z,9.50
2023-02-01T14:11:49.551Z,9.60
2023-02-01T14:14:44.897Z,9.50
2023-02-01T14:17:38.179Z,9.60
2023-02-01T14:20:49.888Z,9.50
2023-02-01T14:23:42.838Z,9.50
2023-02-01T14:26:17.159Z,9.50
2023-02-01T14:29:00.319Z,9.50
2023-02-01T14:31:36.467Z,9.50
2023-02-01T14:34:12.938Z,9.50
2023-02-01T14:36:52.994Z,9.60
2023-02-01T14:39:52.982Z,9.60
2023-02-01T14:42:26.465Z,9.60
2023-02-01T14:44:59.412Z,9.80
2023-02-01T14:47:34.104Z,9.60
2023-02-01T14:50:32.150Z,9.60
2023-02-01T14:53:22.966Z,9.70
2023-02-01T14:55:58.098Z,9.60
2023-02-01T14:58:39.268Z,9.60
2023-02-01T15:01:17.343Z,9.80
2023-02-01T15:03:55.481Z,9.60
2023-02-01T15:06:28.436Z,9.60
2023-02-01T15:08:59.502Z,9.60
2023-02-01T15:11:29.451Z,9.50
2023-02-01T15:13:58.181Z,9.60
2023-02-01T15:16:27.941Z,9.70
2023-02-01T15:19:13.152Z,9.70
2023-02-01T15:21:47.434Z,9.70
2023-02-01T15:24:16.756Z,9.70
2023-02-01T15:26:46.452Z,9.70
2023-02-01T15:29:15.526Z,9.70
2023-02-01T15:31:45.629Z,9.70
2023-02-01T15:34:15.085Z,9.70
2023-02-01T15:37:01.655Z,9.60
2023-02-01T15:39:38.042Z,9.80
2023-02-01T15:42:16.609Z,9.80
2023-02-01T15:44:47.272Z,9.80
2023-02-01T15:47:19.482Z,9.80
2023-02-01T15:49:52.728Z,9.80
2023-02-01T15:52:28.986Z,9.90
2023-02-01T15:55:00.387Z,9.80
2023-02-01T15:57:33.557Z,9.90
2023-02-01T16:00:05.223Z,9.90
2023-02-01T16:02:36.873Z,9.90
2023-02-01T16:05:06.975Z,9.90
2023-02-01T16:07:36.351Z,9.90
2023-02-01T16:10:25.107Z,9.90
2023-02-01T16:12:59.563Z,9.90
2023-02-01T16:15:27.574Z,10.00
2023-02-01T16:17:56.082Z,10.00
2023-02-01T16:20:24.628Z,10.10
2023-02-01T16:22:52.717Z,10.00
2023-02-01T16:25:22.097Z,10.10
2023-02-01T16:27:51.076Z,10.00
2023-02-01T16:30:25.458Z,10.00
2023-02-01T16:32:56.068Z,10.00
2023-02-01T16:35:26.998Z,10.00
2023-02-01T16:37:55.224Z,10.00
2023-02-01T16:40:23.863Z,10.00
2023-02-01T16:42:56.024Z,9.90
2023-02-01T16:45:25.721Z,9.90
2023-02-01T16:47:57.128Z,9.90
2023-02-01T16:50:27.468Z,10.10
2023-02-01T16:52:55.512Z,9.90
2023-02-01T16:55:24.606Z,10.00
2023-02-01T16:57:53.435Z,9.80
2023-02-01T17:00:24.990Z,9.90
2023-02-01T17:02:55.226Z,9.90
2023-02-01T17:05:24.218Z,9.80
2023-02-01T17:07:53.549Z,9.80
2023-02-01T17:10:34.724Z,9.70
2023-02-01T17:13:03.936Z,9.70
2023-02-01T17:15:37.633Z,9.70
2023-02-01T17:18:08.158Z,9.70
2023-02-01T17:20:37.304Z,9.80
2023-02-01T17:23:06.194Z,9.70
2023-02-01T17:25:34.329Z,9.80
2023-02-01T17:28:02.446Z,9.70
2023-02-01T17:30:31.999Z,9.70
2023-02-01T17:33:03.642Z,9.70
2023-02-01T17:35:39.744Z,9.80
2023-02-01T17:38:11.355Z,9.80
2023-02-01T17:40:39.934Z,9.80
2023-02-01T17:43:11.271Z,9.80
2023-02-01T17:45:47.433Z,9.80
2023-02-01T17:48:15.755Z,9.90
2023-02-01T17:50:46.489Z,9.80
2023-02-01T17:53:16.997Z,9.90
2023-02-01T17:55:47.361Z,9.90
2023-02-01T17:58:16.699Z,9.90
2023-02-01T18:00:46.387Z,9.80
2023-02-01T18:03:23.834Z,9.90
2023-02-01T18:05:55.103Z,9.90
2023-02-01T18:08:24.523Z,9.80
2023-02-01T18:10:54.286Z,9.90
2023-02-01T18:13:23.175Z,9.90
2023-02-01T18:15:51.204Z,10.00
2023-02-01T18:18:19.205Z,9.90
2023-02-01T18:20:49.275Z,9.90
2023-02-01T18:23:20.886Z,9.90
2023-02-01T18:25:49.966Z,9.90
2023-02-01T18:28:18.753Z,9.90
2023-02-01T18:30:50.704Z,9.90
2023-02-01T18:33:20.476Z,9.90
2023-02-01T18:35:49.172Z,9.90
2023-02-01T18:38:18.849Z,9.90
2023-02-01T18:40:51.396Z,9.90
2023-02-01T18:43:19.505Z,9.80
2023-02-01T18:45:48.876Z,9.80
2023-02-01T18:48:19.391Z,10.00
2023-02-01T18:50:48.073Z,9.80
2023-02-01T18:53:20.190Z,9.80
2023-02-01T18:55:48.667Z,9.80
2023-02-01T18:58:18.378Z,9.80
2023-02-01T19:00:47.739Z,9.80
2023-02-01T19:03:18.745Z,9.80
2023-02-01T19:05:48.185Z,9.90
2023-02-01T19:08:16.398Z,9.80
2023-02-01T19:10:45.977Z,9.80
2023-02-01T19:13:14.862Z,9.80
2023-02-01T19:15:43.828Z,9.80
2023-02-01T19:18:12.226Z,9.80
2023-02-01T19:20:45.489Z,9.80
2023-02-01T19:23:14.529Z,9.80
2023-02-01T19:25:46.965Z,9.80
2023-02-01T19:28:15.459Z,9.90
2023-02-01T19:30:44.790Z,9.80
2023-02-01T19:33:13.418Z,9.80
2023-02-01T19:35:41.566Z,9.80
2023-02-01T19:38:10.060Z,9.70
2023-02-01T19:40:38.426Z,9.70
2023-02-01T19:43:08.248Z,9.70
2023-02-01T19:45:36.289Z,9.80
2023-02-01T19:48:07.442Z,10.00
2023-02-01T19:50:35.628Z,9.80
2023-02-01T19:53:03.661Z,9.70
2023-02-01T19:55:32.118Z,9.80
2023-02-01T19:58:02.190Z,9.80
2023-02-01T20:00:30.959Z,9.80
2023-02-01T20:02:59.593Z,10.00
2023-02-01T20:05:27.650Z,9.70
2023-02-01T20:07:55.725Z,9.80
2023-02-01T20:10:24.077Z,9.80
2023-02-01T20:12:52.222Z,9.80
2023-02-01T20:15:22.155Z,9.80
2023-02-01T20:17:52.130Z,9.70
2023-02-01T20:20:20.355Z,9.70
2023-02-01T20:22:48.433Z,9.70
2023-02-01T20:25:16.499Z,9.70
2023-02-01T20:27:45.411Z,9.70
2023-02-01T20:30:19.810Z,9.70
2023-02-01T20:32:49.573Z,9.70
2023-02-01T20:35:19.283Z,9.70
2023-02-01T20:37:48.911Z,9.70
2023-02-01T20:40:17.373Z,9.70
2023-02-01T20:42:45.472Z,9.80
2023-02-01T20:45:13.609Z,9.80
2023-02-01T20:47:43.262Z,9.80
2023-02-01T20:50:13.277Z,9.80
2023-02-01T20:52:42.660Z,9.80
2023-02-01T20:55:11.078Z,9.80
2023-02-01T20:57:42.326Z,9.80
2023-02-01T21:00:11.585Z,9.90
2023-02-01T21:02:39.857Z,9.80
2023-02-01T21:05:08.856Z,9.80
2023-02-01T21:07:40.681Z,9.80
2023-02-01T21:10:12.010Z,9.80
2023-02-01T21:12:39.969Z,9.90
2023-02-01T21:15:09.834Z,9.90
2023-02-01T21:17:39.391Z,9.90
2023-02-01T21:20:09.738Z,9.90
2023-02-01T21:22:37.729Z,9.90
2023-02-01T21:25:06.556Z,9.90
2023-02-01T21:27:36.178Z,9.90
2023-02-01T21:30:06.439Z,9.90
2023-02-01T21:32:35.308Z,9.90
2023-02-01T21:35:03.828Z,9.90
2023-02-01T21:37:32.018Z,9.90
2023-02-01T21:39:59.849Z,9.90
2023-02-01T21:42:28.623Z,9.90
2023-02-01T21:44:59.409Z,9.90
2023-02-01T21:47:27.680Z,9.90
2023-02-01T21:49:56.194Z,9.90
2023-02-01T21:52:24.907Z,9.80
2023-02-01T21:54:59.522Z,9.80
2023-02-01T21:57:28.825Z,9.80
2023-02-01T21:59:59.551Z,10.00
2023-02-01T22:02:28.382Z,9.80
2023-02-01T22:04:57.807Z,9.80
2023-02-01T22:07:25.910Z,9.70
2023-02-01T22:09:54.084Z,9.70
2023-02-01T22:12:22.421Z,9.80
2023-02-01T22:14:50.529Z,9.70
2023-02-01T22:17:19.892Z,9.70
2023-02-01T22:19:47.975Z,9.70
2023-02-01T22:22:16.728Z,9.70
2023-02-01T22:24:44.917Z,9.70
2023-02-01T22:27:13.391Z,9.60
2023-02-01T22:29:43.491Z,9.60
2023-02-01T22:32:13.744Z,9.50
2023-02-01T22:34:43.469Z,9.50
2023-02-01T22:37:12.316Z,9.40
2023-02-01T22:39:40.792Z,9.40
2023-02-01T22:42:08.733Z,9.40
2023-02-01T22:44:37.174Z,9.40
2023-02-01T22:47:05.424Z,9.30
2023-02-01T22:49:33.380Z,9.40
2023-02-01T22:52:02.806Z,9.40
2023-02-01T22:54:31.903Z,9.40
2023-02-01T22:57:00.281Z,9.40
2023-02-01T22:59:28.711Z,9.40
2023-02-01T23:01:56.802Z,9.50
2023-02-01T23:04:25.464Z,9.60
2023-02-01T23:06:53.959Z,9.50
2023-02-01T23:09:25.099Z,9.50
2023-02-01T23:11:54.084Z,9.60
2023-02-01T23:14:22.424Z,9.50
2023-02-01T23:16:51.166Z,9.50
2023-02-01T23:19:20.405Z,9.60
2023-02-01T23:21:48.942Z,9.40
2023-02-01T23:24:17.084Z,9.40
2023-02-01T23:26:46.637Z,9.40
2023-02-01T23:29:19.340Z,9.40
2023-02-01T23:31:47.953Z,9.30
2023-02-01T23:34:16.095Z,9.40
2023-02-01T23:36:44.138Z,9.40
2023-02-01T23:39:12.226Z,9.40
2023-02-01T23:41:40.324Z,9.40
2023-02-01T23:44:10.062Z,9.40
2023-02-01T23:46:40.254Z,9.40
2023-02-01T23:49:09.924Z,9.40
2023-02-01T23:51:38.586Z,9.50
2023-02-01T23:54:07.075Z,9.60
2023-02-01T23:56:36.468Z,9.50
2023-02-01T23:59:06.554Z,9.50
